createdAt,value
2022-08-29T00:01:36.300Z,85.57
2022-08-29T00:04:04.925Z,85.28
2022-08-29T00:06:34.452Z,85.88
2022-08-29T00:09:02.509Z,86.63
2022-08-29T00:11:31.686Z,86.23
2022-08-29T00:14:00.593Z,86.57
2022-08-29T00:16:28.504Z,85.90
2022-08-29T00:18:57.150Z,86.26
2022-08-29T00:21:25.676Z,86.33
2022-08-29T00:23:53.525Z,85.43
2022-08-29T00:26:21.391Z,85.96
2022-08-29T00:28:50.544Z,86.30
2022-08-29T00:31:18.455Z,86.77
2022-08-29T00:33:46.275Z,86.81
2022-08-29T00:36:14.381Z,87.06
2022-08-29T00:38:42.407Z,86.74
2022-08-29T00:41:11.219Z,85.81
2022-08-29T00:43:39.653Z,85.95
2022-08-29T00:46:32.941Z,85.60
2022-08-29T00:49:05.928Z,86.16
2022-08-29T00:51:33.984Z,86.51
2022-08-29T00:54:05.779Z,86.15
2022-08-29T00:56:34.252Z,86.71
2022-08-29T00:59:05.029Z,87.21
2022-08-29T01:01:34.567Z,87.15
2022-08-29T01:04:02.662Z,87.20
2022-08-29T01:06:35.018Z,86.89
2022-08-29T01:09:03.503Z,86.96
2022-08-29T01:11:49.709Z,86.67
2022-08-29T01:14:19.307Z,86.43
2022-08-29T01:16:50.011Z,86.88
2022-08-29T01:19:27.823Z,86.14
2022-08-29T01:22:04.182Z,86.70
2022-08-29T01:24:40.243Z,86.73
2022-08-29T01:27:08.834Z,86.65
2022-08-29T01:29:37.115Z,86.11
2022-08-29T01:32:06.377Z,86.12
2022-08-29T01:34:34.250Z,86.34
2022-08-29T01:37:04.374Z,86.56
2022-08-29T01:39:38.517Z,86.84
2022-08-29T01:42:10.565Z,86.99
2022-08-29T01:44:39.886Z,87.90
2022-08-29T01:47:11.335Z,86.89
2022-08-29T01:49:40.723Z,86.28
2022-08-29T01:52:09.407Z,86.48
2022-08-29T01:54:38.512Z,87.21
2022-08-29T01:57:09.717Z,87.98
2022-08-29T01:59:41.514Z,87.69
2022-08-29T02:02:15.529Z,87.51
2022-08-29T02:04:43.707Z,88.01
2022-08-29T02:07:12.847Z,87.95
2022-08-29T02:09:45.658Z,88.96
2022-08-29T02:12:14.252Z,89.93
2022-08-29T02:14:42.746Z,89.48
2022-08-29T02:17:10.994Z,89.95
2022-08-29T02:19:39.948Z,90.01
2022-08-29T02:22:08.913Z,90.13
2022-08-29T02:24:36.916Z,90.69
2022-08-29T02:27:06.356Z,90.55
2022-08-29T02:29:38.388Z,90.49
2022-08-29T02:32:08.350Z,89.71
2022-08-29T02:34:36.700Z,89.99
2022-08-29T02:37:05.289Z,90.58
2022-08-29T02:39:34.163Z,90.62
2022-08-29T02:42:02.043Z,90.23
2022-08-29T02:44:31.768Z,91.00
2022-08-29T02:46:59.597Z,90.55
2022-08-29T02:49:27.383Z,90.59
2022-08-29T02:51:55.172Z,91.31
2022-08-29T02:54:23.601Z,91.33
2022-08-29T02:56:51.668Z,91.14
2022-08-29T02:59:19.431Z,90.04
2022-08-29T03:01:48.598Z,91.38
2022-08-29T03:04:16.450Z,91.93
2022-08-29T03:06:44.240Z,92.38
2022-08-29T03:09:12.047Z,92.50
2022-08-29T03:11:39.847Z,93.33
2022-08-29T03:14:07.635Z,93.47
2022-08-29T03:16:35.889Z,93.86
2022-08-29T03:19:05.342Z,94.22
2022-08-29T03:21:33.593Z,94.73
2022-08-29T03:24:01.371Z,95.89
2022-08-29T03:26:29.232Z,95.91
2022-08-29T03:28:57.027Z,96.35
2022-08-29T03:31:24.852Z,96.82
2022-08-29T03:33:52.739Z,97.52
2022-08-29T03:36:21.871Z,97.10
2022-08-29T03:38:49.837Z,97.86
2022-08-29T03:41:23.170Z,98.42
2022-08-29T03:43:51.633Z,98.22
2022-08-29T03:46:19.601Z,98.32
2022-08-29T03:48:48.193Z,97.90
2022-08-29T03:51:16.709Z,98.09
2022-08-29T03:53:46.048Z,98.96
2022-08-29T03:56:18.384Z,99.51
2022-08-29T03:58:51.884Z,99.25
2022-08-29T04:01:22.621Z,99.86
2022-08-29T04:03:51.229Z,100.00
2022-08-29T04:06:19.371Z,99.97
2022-08-29T04:08:48.546Z,100.00
2022-08-29T04:11:20.030Z,100.00
2022-08-29T04:13:49.522Z,100.00
2022-08-29T04:16:20.521Z,100.00
2022-08-29T04:18:49.018Z,100.00
2022-08-29T04:21:17.243Z,100.00
2022-08-29T04:23:47.318Z,100.00
2022-08-29T04:29:08.175Z,100.00
2022-08-29T04:31:36.821Z,100.00
2022-08-29T04:34:06.087Z,100.00
2022-08-29T04:36:35.061Z,100.00
2022-08-29T04:39:03.251Z,100.00
2022-08-29T04:41:33.251Z,100.00
2022-08-29T04:44:02.962Z,100.00
2022-08-29T04:46:30.989Z,100.00
2022-08-29T04:49:03.398Z,100.00
2022-08-29T04:51:34.305Z,100.00
2022-08-29T04:54:02.774Z,100.00
2022-08-29T04:56:31.983Z,100.00
2022-08-29T04:58:59.756Z,100.00
2022-08-29T05:01:27.798Z,100.00
2022-08-29T05:03:56.506Z,100.00
2022-08-29T05:06:25.289Z,100.00
2022-08-29T05:08:59.390Z,100.00
2022-08-29T05:11:29.493Z,100.00
2022-08-29T05:14:00.065Z,100.00
2022-08-29T05:16:29.925Z,100.00
2022-08-29T05:18:59.452Z,100.00
2022-08-29T05:21:33.971Z,100.00
2022-08-29T05:24:05.488Z,100.00
2022-08-29T05:26:37.052Z,100.00
2022-08-29T05:29:08.413Z,100.00
2022-08-29T05:31:37.501Z,100.00
2022-08-29T05:34:32.417Z,100.00
2022-08-29T05:36:54.268Z,100.00
2022-08-29T05:39:22.119Z,100.00
2022-08-29T05:41:50.173Z,100.00
2022-08-29T05:44:19.341Z,99.08
2022-08-29T05:46:47.589Z,98.67
2022-08-29T05:49:16.167Z,100.00
2022-08-29T05:51:44.010Z,100.00
2022-08-29T05:54:11.924Z,100.00
2022-08-29T05:56:39.688Z,100.00
2022-08-29T05:59:07.466Z,100.00
2022-08-29T06:01:36.576Z,99.75
2022-08-29T06:04:05.507Z,98.52
2022-08-29T06:06:33.559Z,96.73
2022-08-29T06:09:01.601Z,96.68
2022-08-29T06:11:31.906Z,95.98
2022-08-29T06:14:01.958Z,94.87
2022-08-29T06:16:31.189Z,93.93
2022-08-29T06:19:01.192Z,92.83
2022-08-29T06:21:29.170Z,91.98
2022-08-29T06:23:56.971Z,91.59
2022-08-29T06:26:24.947Z,92.26
2022-08-29T06:28:52.747Z,91.37
2022-08-29T06:31:22.126Z,89.32
2022-08-29T06:33:52.445Z,88.93
2022-08-29T06:36:22.056Z,88.06
2022-08-29T06:38:49.856Z,88.59
2022-08-29T06:41:19.009Z,88.28
2022-08-29T06:43:46.828Z,88.15
2022-08-29T06:46:22.331Z,87.24
2022-08-29T06:48:50.580Z,86.80
2022-08-29T06:51:18.749Z,86.44
2022-08-29T06:53:47.872Z,85.60
2022-08-29T06:56:15.896Z,84.75
2022-08-29T06:58:44.035Z,85.12
2022-08-29T07:01:14.343Z,84.14
2022-08-29T07:03:42.507Z,82.95
2022-08-29T07:06:11.023Z,81.05
2022-08-29T07:08:46.795Z,79.48
2022-08-29T07:11:25.586Z,80.09
2022-08-29T07:13:54.019Z,79.39
2022-08-29T07:16:22.923Z,79.90
2022-08-29T07:18:51.520Z,78.93
2022-08-29T07:21:21.857Z,77.41
2022-08-29T07:23:49.926Z,76.85
2022-08-29T07:26:20.574Z,76.02
2022-08-29T07:28:51.023Z,75.62
2022-08-29T07:31:20.017Z,74.30
2022-08-29T07:33:48.065Z,74.31
2022-08-29T07:36:22.440Z,75.06
2022-08-29T07:38:50.219Z,74.03
2022-08-29T07:41:19.923Z,73.69
2022-08-29T07:43:50.285Z,73.69
2022-08-29T07:46:19.433Z,71.77
2022-08-29T07:48:47.431Z,71.63
2022-08-29T07:51:19.177Z,71.42
2022-08-29T07:53:47.619Z,71.19
2022-08-29T07:56:19.134Z,71.08
2022-08-29T07:58:47.274Z,71.05
2022-08-29T08:01:20.964Z,70.14
2022-08-29T08:03:50.048Z,71.16
2022-08-29T08:06:18.405Z,70.25
2022-08-29T08:08:46.206Z,69.24
2022-08-29T08:11:14.519Z,69.52
2022-08-29T08:13:42.623Z,69.15
2022-08-29T08:16:12.976Z,69.59
2022-08-29T08:18:43.702Z,68.70
2022-08-29T08:21:12.787Z,68.97
2022-08-29T08:23:41.410Z,67.98
2022-08-29T08:26:10.539Z,68.97
2022-08-29T08:28:38.979Z,67.28
2022-08-29T08:31:09.055Z,66.86
2022-08-29T08:33:38.719Z,66.08
2022-08-29T08:36:14.418Z,65.29
2022-08-29T08:38:42.205Z,65.60
2022-08-29T08:41:21.815Z,66.46
2022-08-29T08:43:54.426Z,66.00
2022-08-29T08:46:31.288Z,64.60
2022-08-29T08:49:02.022Z,63.97
2022-08-29T08:51:35.157Z,64.96
2022-08-29T08:54:08.484Z,64.63
2022-08-29T08:56:42.163Z,63.76
2022-08-29T08:59:16.664Z,64.16
2022-08-29T09:01:53.449Z,62.87
2022-08-29T09:04:36.410Z,62.33
2022-08-29T09:07:29.666Z,62.05
2022-08-29T09:10:10.567Z,61.58
2022-08-29T09:12:51.428Z,61.48
2022-08-29T09:15:23.438Z,60.94
2022-08-29T09:17:53.708Z,61.57
2022-08-29T09:20:23.918Z,61.98
2022-08-29T09:23:00.651Z,61.02
2022-08-29T09:25:30.233Z,60.00
2022-08-29T09:27:59.085Z,59.58
2022-08-29T09:30:29.519Z,59.84
2022-08-29T09:33:02.561Z,58.68
2022-08-29T09:35:37.754Z,57.84
2022-08-29T09:38:09.096Z,58.97
2022-08-29T09:40:49.454Z,58.07
2022-08-29T09:43:18.762Z,58.85
2022-08-29T09:46:07.565Z,59.10
2022-08-29T09:48:37.336Z,57.49
2022-08-29T09:51:14.907Z,58.47
2022-08-29T09:53:44.691Z,57.71
2022-08-29T09:56:19.005Z,56.88
2022-08-29T09:58:57.882Z,55.83
2022-08-29T10:01:25.703Z,55.47
2022-08-29T10:03:59.804Z,56.71
2022-08-29T10:06:29.939Z,55.63
2022-08-29T10:09:00.528Z,56.37
2022-08-29T10:11:35.275Z,56.11
2022-08-29T10:14:12.529Z,55.52
2022-08-29T10:16:49.731Z,55.50
2022-08-29T10:19:21.470Z,54.49
2022-08-29T10:22:00.537Z,55.38
2022-08-29T10:24:49.195Z,55.85
2022-08-29T10:27:32.004Z,55.86
2022-08-29T10:30:07.163Z,55.70
2022-08-29T10:33:04.055Z,55.10
2022-08-29T10:35:39.894Z,55.21
2022-08-29T10:38:16.080Z,54.80
2022-08-29T10:40:49.488Z,53.37
2022-08-29T10:43:32.756Z,53.31
2022-08-29T10:46:11.778Z,54.80
2022-08-29T10:48:49.370Z,53.01
2022-08-29T10:51:23.348Z,52.80
2022-08-29T10:53:56.576Z,53.44
2022-08-29T10:56:30.593Z,51.96
2022-08-29T10:59:07.770Z,50.96
2022-08-29T11:01:40.148Z,49.68
2022-08-29T11:04:17.781Z,49.34
2022-08-29T11:06:53.380Z,51.29
2022-08-29T11:09:26.355Z,51.88
2022-08-29T11:12:17.434Z,51.84
2022-08-29T11:14:51.567Z,50.98
2022-08-29T11:17:21.875Z,49.92
2022-08-29T11:19:59.071Z,50.22
2022-08-29T11:22:32.249Z,50.38
2022-08-29T11:25:06.867Z,50.56
2022-08-29T11:27:46.466Z,49.67
2022-08-29T11:30:20.118Z,48.99
2022-08-29T11:33:00.525Z,47.01
2022-08-29T11:35:38.087Z,48.87
2022-08-29T11:38:43.093Z,48.88
2022-08-29T11:41:28.490Z,46.19
2022-08-29T11:44:09.653Z,47.71
2022-08-29T11:46:41.554Z,47.88
2022-08-29T11:49:34.188Z,46.76
2022-08-29T11:52:18.895Z,48.46
2022-08-29T11:55:16.102Z,46.93
2022-08-29T11:58:00.404Z,48.01
2022-08-29T12:00:57.525Z,48.66
2022-08-29T12:03:54.174Z,47.72
2022-08-29T12:06:38.779Z,47.66
2022-08-29T12:09:19.741Z,48.56
2022-08-29T12:12:28.474Z,47.03
2022-08-29T12:14:56.959Z,48.18
2022-08-29T12:18:01.284Z,47.47
2022-08-29T12:20:41.183Z,47.76
2022-08-29T12:23:21.223Z,47.23
2022-08-29T12:26:09.411Z,45.64
2022-08-29T12:28:48.447Z,45.96
2022-08-29T12:32:02.226Z,47.56
2022-08-29T12:34:49.745Z,46.14
2022-08-29T12:37:39.661Z,44.58
2022-08-29T12:40:42.221Z,44.34
2022-08-29T12:43:42.859Z,45.06
2022-08-29T12:46:14.936Z,44.94
2022-08-29T12:48:57.348Z,45.23
2022-08-29T12:51:35.132Z,46.11
2022-08-29T12:54:03.021Z,45.98
2022-08-29T12:56:30.940Z,45.07
2022-08-29T12:59:00.973Z,44.71
2022-08-29T13:01:30.843Z,43.56
2022-08-29T13:04:02.910Z,44.38
2022-08-29T13:06:31.074Z,43.49
2022-08-29T13:09:01.045Z,41.93
2022-08-29T13:11:30.321Z,42.30
2022-08-29T13:14:07.900Z,43.22
2022-08-29T13:16:36.083Z,43.71
2022-08-29T13:19:11.919Z,42.78
2022-08-29T13:21:39.910Z,42.65
2022-08-29T13:24:14.447Z,42.93
2022-08-29T13:27:02.805Z,44.22
2022-08-29T13:29:37.736Z,41.45
2022-08-29T13:32:27.573Z,43.19
2022-08-29T13:35:07.991Z,43.37
2022-08-29T13:37:37.881Z,42.83
2022-08-29T13:40:34.365Z,42.88
2022-08-29T13:43:02.419Z,42.76
2022-08-29T13:45:30.476Z,43.57
2022-08-29T13:48:02.400Z,44.14
2022-08-29T13:50:31.116Z,44.48
2022-08-29T13:52:59.836Z,44.82
2022-08-29T13:55:29.259Z,43.68
2022-08-29T13:57:58.500Z,43.38
2022-08-29T14:00:35.256Z,43.33
2022-08-29T14:03:07.017Z,43.41
2022-08-29T14:05:36.192Z,43.08
2022-08-29T14:08:06.016Z,42.71
2022-08-29T14:10:33.833Z,42.76
2022-08-29T14:13:03.396Z,43.08
2022-08-29T14:15:31.351Z,42.88
2022-08-29T14:17:59.555Z,42.83
2022-08-29T14:20:27.492Z,41.44
2022-08-29T14:22:55.237Z,42.00
2022-08-29T14:25:23.257Z,42.46
2022-08-29T14:27:51.378Z,42.62
2022-08-29T14:30:23.631Z,43.15
2022-08-29T14:32:51.515Z,42.68
2022-08-29T14:35:26.468Z,42.11
2022-08-29T14:37:59.986Z,42.84
2022-08-29T14:40:28.805Z,43.08
2022-08-29T14:42:57.938Z,44.32
2022-08-29T14:45:27.628Z,43.41
2022-08-29T14:47:55.679Z,43.55
2022-08-29T14:50:24.575Z,43.30
2022-08-29T14:52:52.500Z,43.78
2022-08-29T14:55:21.321Z,44.19
2022-08-29T14:57:49.189Z,43.96
2022-08-29T15:00:20.181Z,44.24
2022-08-29T15:02:49.725Z,43.17
2022-08-29T15:05:17.727Z,43.31
2022-08-29T15:07:45.614Z,45.17
2022-08-29T15:10:15.648Z,45.03
2022-08-29T15:12:43.371Z,45.08
2022-08-29T15:15:11.935Z,43.92
2022-08-29T15:17:43.512Z,44.66
2022-08-29T15:23:02.046Z,44.70
2022-08-29T15:25:30.180Z,44.40
2022-08-29T15:27:58.019Z,44.58
2022-08-29T15:30:26.543Z,44.17
2022-08-29T15:32:54.476Z,44.92
2022-08-29T15:35:24.001Z,43.75
2022-08-29T15:37:53.580Z,43.90
2022-08-29T15:40:21.483Z,44.00
2022-08-29T15:42:49.338Z,44.52
2022-08-29T15:45:17.535Z,42.85
2022-08-29T15:47:46.126Z,44.24
2022-08-29T15:50:15.028Z,44.22
2022-08-29T15:52:44.287Z,44.23
2022-08-29T15:55:12.816Z,44.78
2022-08-29T15:57:51.172Z,44.36
2022-08-29T16:00:30.148Z,44.01
2022-08-29T16:03:04.284Z,44.04
2022-08-29T16:05:34.266Z,44.19
2022-08-29T16:08:03.848Z,44.02
2022-08-29T16:10:32.200Z,44.99
2022-08-29T16:13:00.577Z,45.00
2022-08-29T16:15:31.032Z,44.42
2022-08-29T16:17:59.881Z,44.50
2022-08-29T16:20:27.855Z,44.88
2022-08-29T16:22:56.306Z,45.15
2022-08-29T16:25:26.177Z,45.53
2022-08-29T16:27:54.275Z,45.88
2022-08-29T16:30:22.375Z,45.91
2022-08-29T16:32:51.109Z,46.18
2022-08-29T16:35:19.852Z,45.47
2022-08-29T16:37:48.120Z,45.28
2022-08-29T16:40:33.219Z,45.27
2022-08-29T16:43:02.159Z,44.99
2022-08-29T16:45:30.071Z,46.20
2022-08-29T16:47:58.061Z,46.31
2022-08-29T16:50:27.673Z,47.14
2022-08-29T16:52:55.870Z,47.16
2022-08-29T16:55:24.297Z,48.10
2022-08-29T16:58:10.915Z,47.68
2022-08-29T17:00:40.554Z,46.38
2022-08-29T17:03:08.755Z,47.35
2022-08-29T17:05:36.724Z,47.19
2022-08-29T17:08:04.011Z,47.78
2022-08-29T17:10:30.738Z,47.60
2022-08-29T17:12:58.781Z,48.60
2022-08-29T17:15:25.550Z,49.09
2022-08-29T17:17:53.365Z,49.73
2022-08-29T17:20:21.279Z,49.51
2022-08-29T17:22:49.093Z,48.15
2022-08-29T17:25:16.983Z,48.49
2022-08-29T17:28:00.831Z,48.92
2022-08-29T17:30:34.033Z,49.76
2022-08-29T17:33:01.936Z,50.11
2022-08-29T17:35:31.268Z,49.66
2022-08-29T17:37:59.601Z,49.73
2022-08-29T17:40:27.589Z,50.43
2022-08-29T17:42:55.466Z,51.15
2022-08-29T17:45:23.499Z,50.84
2022-08-29T17:47:52.676Z,51.06
2022-08-29T17:50:20.796Z,52.10
2022-08-29T17:52:48.571Z,52.24
2022-08-29T17:55:16.372Z,52.58
2022-08-29T17:57:44.167Z,52.68
2022-08-29T18:00:13.351Z,52.76
2022-08-29T18:02:41.752Z,52.88
2022-08-29T18:05:12.715Z,53.21
2022-08-29T18:07:40.705Z,53.01
2022-08-29T18:10:11.142Z,53.37
2022-08-29T18:12:39.755Z,54.81
2022-08-29T18:15:10.145Z,54.06
2022-08-29T18:17:38.202Z,54.96
2022-08-29T18:20:07.954Z,56.51
2022-08-29T18:22:38.248Z,57.44
2022-08-29T18:25:08.528Z,58.36
2022-08-29T18:27:36.171Z,58.89
2022-08-29T18:30:06.240Z,59.09
2022-08-29T18:32:37.250Z,61.20
2022-08-29T18:35:06.247Z,62.76
2022-08-29T18:37:34.018Z,63.50
2022-08-29T18:40:04.803Z,63.15
2022-08-29T18:42:41.428Z,64.34
2022-08-29T18:45:11.038Z,65.25
2022-08-29T18:47:39.417Z,65.66
2022-08-29T18:50:25.599Z,65.81
2022-08-29T18:52:54.970Z,67.18
2022-08-29T18:55:24.963Z,67.69
2022-08-29T18:57:54.138Z,68.83
2022-08-29T19:00:24.143Z,69.71
2022-08-29T19:02:52.135Z,70.13
2022-08-29T19:05:24.865Z,71.47
2022-08-29T19:07:53.394Z,72.53
2022-08-29T19:10:22.037Z,72.47
2022-08-29T19:12:51.321Z,73.41
2022-08-29T19:15:19.960Z,72.84
2022-08-29T19:17:48.038Z,72.34
2022-08-29T19:20:36.631Z,71.87
2022-08-29T19:23:04.879Z,72.48
2022-08-29T19:25:32.814Z,72.85
2022-08-29T19:28:02.485Z,74.17
2022-08-29T19:30:31.025Z,74.47
2022-08-29T19:32:59.080Z,74.33
2022-08-29T19:35:27.396Z,73.94
2022-08-29T19:37:56.684Z,75.19
2022-08-29T19:40:24.596Z,76.85
2022-08-29T19:42:52.635Z,77.15
2022-08-29T19:45:21.846Z,78.95
2022-08-29T19:47:49.799Z,79.86
2022-08-29T19:50:18.870Z,79.26
2022-08-29T19:52:47.363Z,78.30
2022-08-29T19:55:17.781Z,77.89
2022-08-29T19:57:47.376Z,77.57
2022-08-29T20:00:17.919Z,77.29
2022-08-29T20:02:47.259Z,79.16
2022-08-29T20:05:16.087Z,80.26
2022-08-29T20:07:45.324Z,80.21
2022-08-29T20:10:16.724Z,80.54
2022-08-29T20:12:49.397Z,80.34
2022-08-29T20:15:19.299Z,79.96
2022-08-29T20:17:48.475Z,79.75
2022-08-29T20:20:20.068Z,79.75
2022-08-29T20:22:48.970Z,81.81
2022-08-29T20:25:17.706Z,81.25
2022-08-29T20:27:46.568Z,81.89
2022-08-29T20:30:17.005Z,81.66
2022-08-29T20:32:47.775Z,80.51
2022-08-29T20:35:39.468Z,81.30
2022-08-29T20:38:06.920Z,81.53
2022-08-29T20:40:37.835Z,81.59
2022-08-29T20:43:06.247Z,80.82
2022-08-29T20:45:34.550Z,81.09
2022-08-29T20:48:02.506Z,81.65
2022-08-29T20:50:32.047Z,81.96
2022-08-29T20:52:59.891Z,82.37
2022-08-29T20:55:27.757Z,82.89
2022-08-29T20:57:55.565Z,83.48
2022-08-29T21:00:23.700Z,85.32
2022-08-29T21:03:09.003Z,87.58
2022-08-29T21:05:42.532Z,86.91
2022-08-29T21:08:12.596Z,86.32
2022-08-29T21:10:40.488Z,87.62
2022-08-29T21:13:09.411Z,88.49
2022-08-29T21:15:37.320Z,87.82
2022-08-29T21:18:05.710Z,86.29
2022-08-29T21:20:36.289Z,86.47
2022-08-29T21:23:11.432Z,87.13
2022-08-29T21:25:41.448Z,87.42
2022-08-29T21:28:09.418Z,87.77
2022-08-29T21:30:41.375Z,88.34
2022-08-29T21:33:13.015Z,89.10
2022-08-29T21:35:42.008Z,90.43
2022-08-29T21:38:12.164Z,91.51
2022-08-29T21:40:50.499Z,90.83
2022-08-29T21:43:19.282Z,89.82
2022-08-29T21:45:47.247Z,89.06
2022-08-29T21:48:15.370Z,88.97
2022-08-29T21:50:43.862Z,89.50
2022-08-29T21:53:14.238Z,89.36
2022-08-29T21:55:42.111Z,88.99
2022-08-29T21:58:09.976Z,88.90
2022-08-29T22:00:42.096Z,89.34
2022-08-29T22:03:12.297Z,89.64
2022-08-29T22:05:43.844Z,90.69
2022-08-29T22:08:13.332Z,91.57
2022-08-29T22:10:42.568Z,91.65
2022-08-29T22:13:10.613Z,92.85
2022-08-29T22:15:56.674Z,91.75
2022-08-29T22:18:24.622Z,91.36
2022-08-29T22:20:52.881Z,90.86
2022-08-29T22:23:25.411Z,91.71
2022-08-29T22:25:53.946Z,91.96
2022-08-29T22:28:21.764Z,92.45
2022-08-29T22:30:50.465Z,95.51
2022-08-29T22:33:18.508Z,95.94
2022-08-29T22:35:46.784Z,95.76
2022-08-29T22:38:14.746Z,94.59
2022-08-29T22:40:45.482Z,96.39
2022-08-29T22:43:13.547Z,97.55
2022-08-29T22:45:41.634Z,94.79
2022-08-29T22:48:09.696Z,95.69
2022-08-29T22:50:38.042Z,96.21
2022-08-29T22:53:06.386Z,95.23
2022-08-29T22:55:34.380Z,95.63
2022-08-29T22:58:04.756Z,94.18
2022-08-29T23:00:32.668Z,93.54
2022-08-29T23:03:02.179Z,94.26
2022-08-29T23:05:30.489Z,95.67
2022-08-29T23:07:58.311Z,97.70
2022-08-29T23:10:26.295Z,97.40
2022-08-29T23:12:54.089Z,96.96
2022-08-29T23:15:23.259Z,95.83
2022-08-29T23:17:51.062Z,94.92
2022-08-29T23:20:19.221Z,95.41
2022-08-29T23:22:47.230Z,95.70
2022-08-29T23:25:17.861Z,96.06
2022-08-29T23:27:45.786Z,95.45
2022-08-29T23:30:14.880Z,95.81
2022-08-29T23:32:44.137Z,96.76
2022-08-29T23:35:11.991Z,99.56
2022-08-29T23:37:39.990Z,100.00
2022-08-29T23:40:09.602Z,100.00
2022-08-29T23:42:37.923Z,100.00
2022-08-29T23:45:06.679Z,100.00
2022-08-29T23:47:36.060Z,100.00
2022-08-29T23:50:06.526Z,99.68
2022-08-29T23:52:34.483Z,100.00
2022-08-29T23:55:02.466Z,100.00
2022-08-29T23:57:30.243Z,100.00
